Time;durP1;ratioP1;P1;durP2;ratioP2;P2;SDS_P1;SDS_P2;PMS_P1;PMS_P2;Temp;Humidity;BMP_temperature;BMP_pressure;BME280_temperature;BME280_humidity;BME280_pressure;Samples;Min_cycle;Max_cycle;Signal;HPM_P1;HPM_P2
2023/05/18 00:02:32;;;;;;;0.80;0.50;;;;;11.90;97113.00;;;;5099672;28;20202;-71
2023/05/18 00:05:22;;;;;;;0.70;0.70;;;;;11.90;97115.00;;;;5107219;28;20214;-71
2023/05/18 00:08:11;;;;;;;0.70;0.70;;;;;11.80;97107.00;;;;5095502;28;20225;-71
2023/05/18 00:11:01;;;;;;;1.23;1.13;;;;;11.80;97099.00;;;;5099271;28;20571;-71
2023/05/18 00:13:50;;;;;;;0.57;0.57;;;;;12.00;97103.00;;;;5096468;28;20208;-71
2023/05/18 00:16:39;;;;;;;1.43;0.80;;;;;12.00;97106.00;;;;5093571;28;20221;-71
2023/05/18 00:19:29;;;;;;;1.47;0.97;;;;;11.90;97111.00;;;;5104798;28;20256;-71
2023/05/18 00:22:18;;;;;;;0.60;0.60;;;;;11.90;97116.00;;;;5105020;28;20560;-71
2023/05/18 00:25:07;;;;;;;1.33;0.70;;;;;11.90;97108.00;;;;5107816;28;20209;-71
2023/05/18 00:27:58;;;;;;;0.83;0.43;;;;;11.90;97106.00;;;;5107385;28;20767;-71
2023/05/18 00:30:47;;;;;;;0.90;0.80;;;;;11.90;97105.00;;;;5108295;28;20202;-71
2023/05/18 00:33:36;;;;;;;0.80;0.80;;;;;11.80;97105.00;;;;5091151;28;20211;-71
2023/05/18 00:36:25;;;;;;;0.60;0.60;;;;;11.70;97104.00;;;;5098494;28;20263;-71
2023/05/18 00:39:14;;;;;;;1.57;1.10;;;;;11.80;97105.00;;;;5106211;28;20206;-71
2023/05/18 00:42:03;;;;;;;1.27;1.00;;;;;11.60;97107.00;;;;5108135;28;20198;-71
2023/05/18 00:44:53;;;;;;;3.17;0.50;;;;;11.80;97112.00;;;;5107402;28;20203;-71
2023/05/18 00:47:42;;;;;;;1.03;0.57;;;;;11.80;97114.00;;;;5107527;28;20219;-71
2023/05/18 00:50:32;;;;;;;0.67;0.60;;;;;11.70;97110.00;;;;5107349;28;20209;-70
2023/05/18 00:53:20;;;;;;;1.20;0.90;;;;;11.80;97107.00;;;;5103778;28;20577;-70
2023/05/18 00:56:11;;;;;;;0.50;0.50;;;;;11.80;97107.00;;;;5107271;28;20198;-70
2023/05/18 00:59:01;;;;;;;0.70;0.60;;;;;11.80;97100.00;;;;5091473;28;20214;-70
2023/05/18 01:01:51;;;;;;;0.57;0.50;;;;;11.80;97108.00;;;;5087034;28;20198;-70
2023/05/18 01:04:41;;;;;;;1.53;0.73;;;;;11.70;97109.00;;;;5107606;28;20190;-70
2023/05/18 01:07:32;;;;;;;0.57;0.57;;;;;11.90;97114.00;;;;5097880;28;20223;-70
2023/05/18 01:10:21;;;;;;;1.43;0.83;;;;;11.90;97104.00;;;;5108211;28;20202;-70
2023/05/18 01:13:15;;;;;;;1.23;1.00;;;;;11.80;97100.00;;;;5107796;28;20819;-70
2023/05/18 01:16:09;;;;;;;1.10;1.00;;;;;11.90;97102.00;;;;5106851;28;20199;-70
2023/05/18 01:19:04;;;;;;;0.77;0.77;;;;;11.90;97104.00;;;;5102261;28;20216;-70
2023/05/18 01:21:58;;;;;;;2.10;1.50;;;;;11.70;97104.00;;;;5108888;28;20201;-70
2023/05/18 01:24:52;;;;;;;5.97;0.97;;;;;11.80;97100.00;;;;5107001;28;20214;-70
2023/05/18 01:27:45;;;;;;;0.93;0.90;;;;;11.80;97109.00;;;;5107316;28;20576;-70
2023/05/18 01:30:35;;;;;;;2.67;0.77;;;;;11.80;97110.00;;;;5108225;28;20210;-70
2023/05/18 01:33:25;;;;;;;1.27;0.90;;;;;11.80;97102.00;;;;5098907;28;20203;-70
2023/05/18 01:36:14;;;;;;;0.87;0.60;;;;;11.90;97110.00;;;;5106438;28;20218;-70
2023/05/18 01:39:04;;;;;;;1.90;0.60;;;;;11.80;97104.00;;;;5107192;28;20214;-70
2023/05/18 01:41:58;;;;;;;1.90;0.83;;;;;11.80;97105.00;;;;5093752;28;20203;-71
2023/05/18 01:44:53;;;;;;;0.80;0.80;;;;;11.80;97107.00;;;;5100941;28;20195;-70
2023/05/18 01:47:46;;;;;;;0.70;0.70;;;;;11.90;97112.00;;;;5105752;28;20215;-70
2023/05/18 01:50:37;;;;;;;1.23;0.63;;;;;11.90;97104.00;;;;5098039;28;20553;-71
2023/05/18 01:53:31;;;;;;;0.80;0.80;;;;;11.80;97104.00;;;;5108020;28;20206;-70
2023/05/18 01:56:21;;;;;;;0.70;0.70;;;;;11.60;97100.00;;;;5111147;28;20191;-70
2023/05/18 01:59:11;;;;;;;1.87;0.80;;;;;11.80;97104.00;;;;5106145;28;20586;-70
2023/05/18 02:02:02;;;;;;;2.87;0.83;;;;;11.80;97106.00;;;;5096924;28;20214;-70
2023/05/18 02:04:51;;;;;;;0.93;0.87;;;;;11.90;97102.00;;;;5110701;28;20199;-70
2023/05/18 02:07:42;;;;;;;1.60;1.10;;;;;12.00;97109.00;;;;5094694;28;20211;-70
2023/05/18 02:10:31;;;;;;;1.37;1.03;;;;;11.90;97097.00;;;;5110736;28;20697;-70
2023/05/18 02:13:20;;;;;;;1.30;0.90;;;;;11.90;97097.00;;;;5110118;28;20199;-70
2023/05/18 02:16:10;;;;;;;0.73;0.73;;;;;12.00;97099.00;;;;5110054;28;20207;-70
2023/05/18 02:19:02;;;;;;;0.93;0.93;;;;;12.00;97104.00;;;;5104977;28;20218;-70
2023/05/18 02:21:51;;;;;;;1.00;0.90;;;;;11.90;97097.00;;;;5110179;28;20273;-70
2023/05/18 02:24:40;;;;;;;1.07;0.87;;;;;11.90;97090.00;;;;5094823;28;20572;-70
2023/05/18 02:27:29;;;;;;;5.57;1.10;;;;;11.90;97098.00;;;;5109614;28;20230;-70
2023/05/18 02:30:18;;;;;;;1.13;0.90;;;;;12.10;97097.00;;;;5111866;28;20570;-70
2023/05/18 02:33:07;;;;;;;1.33;1.00;;;;;12.00;97102.00;;;;5102250;28;20926;-70
2023/05/18 02:35:58;;;;;;;2.70;0.80;;;;;12.10;97097.00;;;;5110392;28;20210;-71
2023/05/18 02:38:47;;;;;;;1.27;0.70;;;;;12.10;97105.00;;;;5109022;28;21054;-71
2023/05/18 02:41:37;;;;;;;0.80;0.80;;;;;11.90;97097.00;;;;5111083;28;20203;-70
2023/05/18 02:44:26;;;;;;;2.83;1.17;;;;;11.90;97103.00;;;;5109331;28;20202;-70
2023/05/18 02:47:15;;;;;;;1.73;1.13;;;;;12.00;97101.00;;;;5109299;28;20218;-71
2023/05/18 02:50:05;;;;;;;1.33;1.03;;;;;12.00;97093.00;;;;5110235;28;20205;-70
2023/05/18 02:52:55;;;;;;;1.10;0.90;;;;;12.00;97097.00;;;;5097350;28;20202;-71
2023/05/18 02:55:45;;;;;;;0.93;0.70;;;;;12.00;97097.00;;;;5109926;28;20229;-71
2023/05/18 02:58:34;;;;;;;2.03;1.33;;;;;11.80;97103.00;;;;5103175;28;20253;-71
2023/05/18 03:01:25;;;;;;;0.73;0.70;;;;;11.80;97093.00;;;;5108698;28;20673;-69
2023/05/18 03:04:15;;;;;;;1.20;1.10;;;;;11.70;97094.00;;;;5107859;28;20205;-69
2023/05/18 03:07:06;;;;;;;1.47;1.17;;;;;11.70;97095.00;;;;5109714;28;20218;-69
2023/05/18 03:09:57;;;;;;;1.60;1.23;;;;;11.80;97091.00;;;;5110181;28;20194;-70
2023/05/18 03:12:46;;;;;;;1.83;1.40;;;;;11.90;97084.00;;;;5108959;28;20199;-70
2023/05/18 03:15:36;;;;;;;1.27;1.17;;;;;11.40;97088.00;;;;5108423;28;20678;-68
2023/05/18 03:18:25;;;;;;;3.20;1.30;;;;;11.70;97099.00;;;;5103516;28;20237;-69
2023/05/18 03:21:15;;;;;;;1.13;0.90;;;;;11.70;97098.00;;;;5099850;28;20678;-69
2023/05/18 03:24:05;;;;;;;1.53;1.20;;;;;11.80;97113.00;;;;5099846;28;20198;-69
2023/05/18 03:26:55;;;;;;;1.53;1.07;;;;;11.50;97093.00;;;;5109217;28;20225;-68
2023/05/18 03:29:45;;;;;;;5.60;1.30;;;;;11.60;97102.00;;;;5093905;28;20202;-69
2023/05/18 03:32:35;;;;;;;1.43;1.33;;;;;11.80;97094.00;;;;5099584;28;20194;-69
2023/05/18 03:35:25;;;;;;;5.67;1.10;;;;;11.70;97102.00;;;;5108959;28;20206;-69
2023/05/18 03:38:14;;;;;;;1.60;1.30;;;;;11.80;97095.00;;;;5108998;28;20718;-68
2023/05/18 03:41:03;;;;;;;1.20;1.10;;;;;11.80;97101.00;;;;5102129;28;20218;-68
2023/05/18 03:43:53;;;;;;;4.70;1.30;;;;;11.70;97100.00;;;;5098232;28;20195;-68
2023/05/18 03:46:42;;;;;;;1.70;1.30;;;;;11.70;97100.00;;;;5104085;28;20238;-68
2023/05/18 03:49:34;;;;;;;1.47;1.37;;;;;11.70;97106.00;;;;5091552;28;20202;-68
2023/05/18 03:52:23;;;;;;;2.23;1.30;;;;;11.60;97103.00;;;;5104506;28;20202;-68
2023/05/18 03:55:12;;;;;;;2.23;1.77;;;;;11.60;97104.00;;;;5108952;28;20198;-68
2023/05/18 03:58:02;;;;;;;2.47;1.23;;;;;11.50;97109.00;;;;5095418;28;20234;-68
2023/05/18 04:00:52;;;;;;;2.00;1.63;;;;;11.40;97099.00;;;;5093554;28;20202;-68
2023/05/18 04:03:42;;;;;;;1.63;1.17;;;;;11.40;97104.00;;;;5108859;28;20700;-68
2023/05/18 04:06:34;;;;;;;1.63;1.53;;;;;11.50;97095.00;;;;5107440;28;20202;-68
2023/05/18 04:09:23;;;;;;;1.93;1.53;;;;;11.40;97108.00;;;;5108700;28;20693;-68
2023/05/18 04:12:12;;;;;;;1.10;0.93;;;;;11.40;97109.00;;;;5108531;28;20202;-69
2023/05/18 04:15:02;;;;;;;1.47;1.30;;;;;11.30;97099.00;;;;5106459;28;20198;-69
2023/05/18 04:17:53;;;;;;;1.63;1.50;;;;;11.40;97105.00;;;;5103002;28;20215;-69
2023/05/18 04:20:44;;;;;;;2.37;2.17;;;;;11.50;97104.00;;;;5108023;28;20206;-69
2023/05/18 04:23:37;;;;;;;3.47;1.70;;;;;11.30;97109.00;;;;5108328;28;20250;-69
2023/05/18 04:26:26;;;;;;;4.70;1.37;;;;;11.50;97109.00;;;;5107333;28;20216;-69
2023/05/18 04:29:16;;;;;;;1.87;1.27;;;;;11.50;97107.00;;;;5107849;28;20598;-69
2023/05/18 04:32:06;;;;;;;2.53;1.97;;;;;11.60;97109.00;;;;5101884;28;20214;-69
2023/05/18 04:35:00;;;;;;;1.70;1.23;;;;;11.80;97116.00;;;;5106708;28;20202;-69
2023/05/18 04:37:49;;;;;;;2.40;1.70;;;;;11.90;97118.00;;;;5095273;28;20218;-69
2023/05/18 04:40:41;;;;;;;2.33;1.37;;;;;12.00;97122.00;;;;5107470;28;20202;-69
2023/05/18 04:43:30;;;;;;;1.83;1.53;;;;;12.20;97130.00;;;;5107988;28;20221;-69
2023/05/18 04:46:21;;;;;;;3.17;1.80;;;;;12.20;97127.00;;;;5108165;28;20203;-69
2023/05/18 04:49:10;;;;;;;3.00;1.83;;;;;12.20;97128.00;;;;5108144;28;20273;-69
2023/05/18 04:52:00;;;;;;;4.60;1.70;;;;;12.30;97136.00;;;;5088718;28;20202;-69
2023/05/18 04:54:50;;;;;;;1.20;1.10;;;;;12.40;97139.00;;;;5101029;28;20569;-69
2023/05/18 04:57:39;;;;;;;2.33;1.77;;;;;12.40;97132.00;;;;5098541;28;20222;-69
2023/05/18 05:00:29;;;;;;;2.17;1.73;;;;;12.60;97132.00;;;;5105738;28;20237;-69
2023/05/18 05:03:18;;;;;;;2.07;1.50;;;;;12.60;97135.00;;;;5107518;28;20206;-69
2023/05/18 05:06:07;;;;;;;1.37;1.27;;;;;12.70;97135.00;;;;5108399;28;20206;-69
2023/05/18 05:08:58;;;;;;;1.73;1.40;;;;;12.70;97139.00;;;;5107336;28;20198;-69
2023/05/18 05:11:47;;;;;;;2.53;1.20;;;;;13.00;97134.00;;;;5094333;28;20210;-69
2023/05/18 05:14:36;;;;;;;1.80;1.50;;;;;13.00;97135.00;;;;5107506;28;20195;-69
2023/05/18 05:17:25;;;;;;;2.70;1.47;;;;;13.20;97146.00;;;;5101477;28;20227;-69
2023/05/18 05:20:14;;;;;;;1.70;1.43;;;;;13.30;97140.00;;;;5107109;28;20591;-69
2023/05/18 05:23:04;;;;;;;2.00;1.17;;;;;13.00;97146.00;;;;5107331;28;20214;-73
2023/05/18 05:25:54;;;;;;;2.60;1.50;;;;;13.30;97142.00;;;;5108200;28;20202;-68
2023/05/18 05:28:43;;;;;;;3.90;2.00;;;;;13.50;97144.00;;;;5110126;28;20210;-68
2023/05/18 05:31:33;;;;;;;1.60;1.50;;;;;13.40;97137.00;;;;5108531;28;20689;-69
2023/05/18 05:34:22;;;;;;;3.23;1.57;;;;;13.50;97140.00;;;;5106508;28;20225;-70
2023/05/18 05:37:11;;;;;;;1.63;1.47;;;;;13.80;97144.00;;;;5107576;28;20222;-69
2023/05/18 05:40:00;;;;;;;6.17;1.57;;;;;13.60;97153.00;;;;5101352;28;20233;-69
2023/05/18 05:42:50;;;;;;;3.73;1.73;;;;;13.50;97145.00;;;;5099078;28;20748;-69
2023/05/18 05:45:41;;;;;;;2.23;1.37;;;;;13.70;97143.00;;;;5095197;28;20206;-71
2023/05/18 05:48:30;;;;;;;2.30;0.97;;;;;13.70;97146.00;;;;5109179;28;20226;-70
2023/05/18 05:51:19;;;;;;;1.20;1.10;;;;;13.70;97151.00;;;;5098290;28;20290;-70
2023/05/18 05:54:08;;;;;;;1.87;1.50;;;;;13.90;97149.00;;;;5101671;28;20218;-70
2023/05/18 05:56:58;;;;;;;2.87;1.73;;;;;13.90;97152.00;;;;5084036;28;20224;-70
2023/05/18 05:59:49;;;;;;;1.43;1.23;;;;;14.10;97158.00;;;;5084497;28;20226;-70
2023/05/18 06:02:38;;;;;;;2.37;1.27;;;;;14.10;97168.00;;;;5085145;28;20257;-69
2023/05/18 06:05:27;;;;;;;2.23;1.77;;;;;14.10;97152.00;;;;5109227;28;20198;-70
2023/05/18 06:08:16;;;;;;;1.23;1.13;;;;;14.30;97163.00;;;;5109711;28;20222;-69
2023/05/18 06:11:05;;;;;;;1.47;1.20;;;;;14.30;97156.00;;;;5110815;28;20202;-70
2023/05/18 06:13:55;;;;;;;1.00;0.90;;;;;14.30;97158.00;;;;5098008;28;20425;-69
2023/05/18 06:16:46;;;;;;;2.80;1.27;;;;;14.50;97159.00;;;;5092876;28;20199;-69
2023/05/18 06:19:35;;;;;;;3.57;1.53;;;;;14.30;97156.00;;;;5096443;28;20703;-71
2023/05/18 06:22:24;;;;;;;1.63;1.13;;;;;14.60;97149.00;;;;5100101;28;20210;-71
2023/05/18 06:25:13;;;;;;;2.37;1.67;;;;;14.50;97147.00;;;;5110367;28;20206;-72
2023/05/18 06:28:02;;;;;;;2.53;1.50;;;;;14.80;97159.00;;;;5110367;28;20728;-70
2023/05/18 06:30:51;;;;;;;1.67;1.43;;;;;14.90;97165.00;;;;5097932;28;20589;-68
2023/05/18 06:33:42;;;;;;;3.43;1.60;;;;;15.40;97164.00;;;;5101822;28;20205;-67
2023/05/18 06:36:31;;;;;;;2.63;1.43;;;;;15.50;97170.00;;;;5109601;28;20207;-68
2023/05/18 06:39:20;;;;;;;0.77;0.77;;;;;14.90;97156.00;;;;5107394;28;20226;-70
2023/05/18 06:42:10;;;;;;;1.50;1.03;;;;;15.40;97164.00;;;;5106420;28;20213;-66
2023/05/18 06:44:59;;;;;;;1.30;1.00;;;;;15.70;97164.00;;;;5100634;28;20218;-69
2023/05/18 06:47:48;;;;;;;0.57;0.57;;;;;15.50;97163.00;;;;5096533;28;20214;-72
2023/05/18 06:50:38;;;;;;;2.80;1.50;;;;;15.70;97171.00;;;;5098518;28;20199;-68
2023/05/18 06:53:29;;;;;;;1.00;0.90;;;;;15.60;97170.00;;;;5107921;28;20210;-72
2023/05/18 06:56:18;;;;;;;1.37;1.27;;;;;15.90;97163.00;;;;5110586;28;20199;-67
2023/05/18 06:59:07;;;;;;;1.90;0.90;;;;;15.20;97154.00;;;;5104415;28;20218;-69
2023/05/18 07:01:56;;;;;;;1.70;0.80;;;;;16.00;97173.00;;;;5088806;28;20200;-66
2023/05/18 07:04:45;;;;;;;0.70;0.60;;;;;15.50;97179.00;;;;5087712;28;20195;-69
2023/05/18 07:07:36;;;;;;;1.03;0.90;;;;;15.60;97172.00;;;;5085822;28;20581;-65
2023/05/18 07:10:27;;;;;;;0.90;0.80;;;;;16.20;97176.00;;;;5088532;28;20202;-67
2023/05/18 07:13:16;;;;;;;0.73;0.60;;;;;15.70;97166.00;;;;5088692;28;20682;-66
2023/05/18 07:16:06;;;;;;;1.40;0.90;;;;;16.20;97183.00;;;;5109015;28;20202;-68
2023/05/18 07:18:56;;;;;;;0.87;0.87;;;;;15.60;97173.00;;;;5104979;28;20199;-72
2023/05/18 07:21:45;;;;;;;1.23;0.80;;;;;16.10;97183.00;;;;5087484;28;20195;-70
2023/05/18 07:24:36;;;;;;;1.07;0.57;;;;;15.90;97178.00;;;;5098047;28;20272;-74
2023/05/18 07:27:25;;;;;;;1.20;1.00;;;;;16.30;97185.00;;;;5107784;28;20235;-74
2023/05/18 07:30:14;;;;;;;1.33;0.70;;;;;15.60;97174.00;;;;5106524;28;20195;-67
2023/05/18 07:33:03;;;;;;;1.50;0.90;;;;;16.80;97181.00;;;;5090176;28;20203;-71
2023/05/18 07:35:52;;;;;;;1.37;1.03;;;;;16.30;97183.00;;;;5104187;28;20191;-67
2023/05/18 07:38:41;;;;;;;1.07;0.80;;;;;16.80;97162.00;;;;5093202;28;20223;-69
2023/05/18 07:41:32;;;;;;;1.60;0.93;;;;;16.80;97174.00;;;;5087008;28;20230;-72
2023/05/18 07:44:21;;;;;;;0.80;0.80;;;;;17.10;97195.00;;;;5087395;28;20836;-74
2023/05/18 07:47:10;;;;;;;0.70;0.70;;;;;17.00;97186.00;;;;5106673;28;20219;-71
2023/05/18 07:49:59;;;;;;;1.13;0.83;;;;;17.40;97183.00;;;;5088079;28;20693;-70
2023/05/18 07:52:48;;;;;;;1.43;0.90;;;;;17.30;97189.00;;;;5087721;28;20206;-65
2023/05/18 07:55:37;;;;;;;1.77;0.70;;;;;15.80;97190.00;;;;5096141;28;20210;-67
2023/05/18 07:58:28;;;;;;;1.33;0.77;;;;;14.50;97177.00;;;;5092628;28;20707;-75
2023/05/18 08:01:17;;;;;;;1.50;0.83;;;;;16.60;97187.00;;;;5078248;28;20226;-71
2023/05/18 08:04:06;;;;;;;0.60;0.60;;;;;17.30;97185.00;;;;5069924;28;20692;-71
2023/05/18 08:06:59;;;;;;;1.20;0.70;;;;;17.20;97182.00;;;;5081540;28;20219;-65
2023/05/18 08:09:48;;;;;;;2.47;0.70;;;;;16.70;97170.00;;;;5065089;28;20223;-67
2023/05/18 08:12:37;;;;;;;1.00;0.90;;;;;17.60;97183.00;;;;5077452;28;20199;-68
2023/05/18 08:15:27;;;;;;;0.60;0.60;;;;;17.80;97176.00;;;;5077749;28;20203;-72
2023/05/18 08:18:16;;;;;;;1.40;1.10;;;;;18.00;97183.00;;;;5070648;28;20710;-65
2023/05/18 08:21:08;;;;;;;1.00;0.77;;;;;17.70;97188.00;;;;5075216;28;20235;-67
2023/05/18 08:23:57;;;;;;;0.80;0.80;;;;;17.60;97173.00;;;;5073080;28;20215;-66
2023/05/18 08:26:46;;;;;;;0.93;0.53;;;;;18.10;97178.00;;;;5067829;28;20746;-65
2023/05/18 08:29:35;;;;;;;0.30;0.30;;;;;18.30;97158.00;;;;5069766;28;20718;-75
2023/05/18 08:32:26;;;;;;;0.40;0.40;;;;;18.50;97174.00;;;;5070552;28;20219;-68
2023/05/18 08:35:16;;;;;;;0.83;0.57;;;;;18.80;97171.00;;;;5069104;28;20203;-66
2023/05/18 08:38:05;;;;;;;0.70;0.70;;;;;19.30;97170.00;;;;5067368;28;20229;-66
2023/05/18 08:41:02;;;;;;;0.50;0.50;;;;;19.40;97167.00;;;;5077911;28;20216;-66
2023/05/18 08:43:56;;;;;;;0.97;0.50;;;;;19.30;97158.00;;;;5070582;28;20200;-68
2023/05/18 08:46:47;;;;;;;0.37;0.37;;;;;20.00;97145.00;;;;5061442;28;20200;-69
2023/05/18 08:49:37;;;;;;;0.57;0.40;;;;;20.10;97162.00;;;;5058894;28;20933;-73
2023/05/18 08:52:27;;;;;;;0.53;0.50;;;;;20.50;97176.00;;;;5069900;28;20207;-71
2023/05/18 08:55:17;;;;;;;0.50;0.50;;;;;20.80;97185.00;;;;5070222;28;20626;-67
2023/05/18 08:58:08;;;;;;;3.80;0.40;;;;;20.00;97186.00;;;;5079223;28;20215;-69
2023/05/18 09:00:57;;;;;;;0.63;0.63;;;;;19.70;97167.00;;;;5096642;28;20222;-71
2023/05/18 09:03:48;;;;;;;0.87;0.37;;;;;18.80;97176.00;;;;5090483;28;20195;-64
2023/05/18 09:06:38;;;;;;;1.87;0.50;;;;;19.50;97184.00;;;;5088566;28;20199;-65
2023/05/18 09:09:27;;;;;;;1.30;1.20;;;;;19.40;97170.00;;;;5088517;28;20203;-67
2023/05/18 09:12:17;;;;;;;0.77;0.43;;;;;20.20;97170.00;;;;5092875;28;20690;-67
2023/05/18 09:15:08;;;;;;;0.53;0.53;;;;;18.70;97172.00;;;;5098251;28;20194;-67
2023/05/18 09:17:57;;;;;;;0.60;0.50;;;;;19.50;97174.00;;;;5087890;28;20618;-70
2023/05/18 09:20:47;;;;;;;0.97;0.60;;;;;21.00;97183.00;;;;5085896;28;20755;-70
2023/05/18 09:23:38;;;;;;;0.80;0.57;;;;;20.40;97176.00;;;;5090892;28;20204;-71
2023/05/18 09:26:27;;;;;;;0.57;0.57;;;;;20.20;97186.00;;;;5090499;28;20206;-71
2023/05/18 09:29:18;;;;;;;1.47;0.73;;;;;20.50;97181.00;;;;5099910;28;20210;-71
2023/05/18 09:32:10;;;;;;;0.67;0.60;;;;;20.70;97179.00;;;;5111198;28;20195;-71
2023/05/18 09:35:05;;;;;;;0.57;0.57;;;;;20.60;97171.00;;;;5103847;28;20697;-72
2023/05/18 09:37:54;;;;;;;0.80;0.60;;;;;20.10;97165.00;;;;5099757;28;20694;-73
2023/05/18 09:40:47;;;;;;;0.77;0.70;;;;;20.40;97169.00;;;;5090900;28;20195;-74
2023/05/18 09:43:36;;;;;;;0.60;0.50;;;;;20.40;97171.00;;;;5097608;28;20207;-71
2023/05/18 09:46:25;;;;;;;0.57;0.57;;;;;20.70;97154.00;;;;5090271;28;20667;-70
2023/05/18 09:49:22;;;;;;;0.93;0.60;;;;;20.80;97162.00;;;;5090267;28;20208;-68
2023/05/18 09:52:11;;;;;;;0.50;0.40;;;;;20.70;97164.00;;;;5094144;28;20206;-70
2023/05/18 09:55:00;;;;;;;1.10;0.70;;;;;19.80;97165.00;;;;5095864;28;20215;-67
2023/05/18 09:57:51;;;;;;;1.20;0.73;;;;;20.20;97164.00;;;;5094836;28;20601;-69
2023/05/18 10:00:43;;;;;;;0.43;0.43;;;;;21.20;97154.00;;;;5089622;28;20206;-68
2023/05/18 10:03:35;;;;;;;1.30;0.83;;;;;21.40;97152.00;;;;5090732;28;20218;-68
2023/05/18 10:06:27;;;;;;;0.87;0.70;;;;;20.90;97154.00;;;;5099944;28;20600;-67
2023/05/18 10:09:17;;;;;;;0.60;0.57;;;;;22.00;97147.00;;;;5094376;28;20670;-68
2023/05/18 10:12:11;;;;;;;1.10;0.90;;;;;21.60;97152.00;;;;5090786;28;20203;-70
2023/05/18 10:15:02;;;;;;;2.40;0.70;;;;;21.30;97157.00;;;;5087409;28;20207;-71
2023/05/18 10:17:52;;;;;;;0.97;0.60;;;;;20.90;97148.00;;;;5092684;28;20222;-71
2023/05/18 10:20:41;;;;;;;0.70;0.70;;;;;19.50;97141.00;;;;5098829;28;20576;-67
2023/05/18 10:23:33;;;;;;;1.83;0.50;;;;;21.50;97153.00;;;;5091311;28;20590;-67
2023/05/18 10:26:24;;;;;;;0.83;0.73;;;;;22.00;97132.00;;;;5089600;28;20214;-67
2023/05/18 10:29:13;;;;;;;1.00;0.80;;;;;22.70;97121.00;;;;5091418;28;20203;-68
2023/05/18 10:32:04;;;;;;;0.70;0.70;;;;;20.70;97124.00;;;;5097464;28;20213;-70
2023/05/18 10:34:57;;;;;;;0.73;0.67;;;;;21.90;97133.00;;;;5109580;28;20683;-74
2023/05/18 10:37:47;;;;;;;0.67;0.50;;;;;20.60;97130.00;;;;5109666;28;20789;-76
2023/05/18 10:40:39;;;;;;;1.00;0.90;;;;;22.80;97113.00;;;;5091668;28;20206;-67
2023/05/18 10:43:29;;;;;;;1.10;0.80;;;;;23.70;97115.00;;;;5097907;28;20207;-73
2023/05/18 10:46:20;;;;;;;0.90;0.90;;;;;23.00;97103.00;;;;5097404;28;20207;-72
2023/05/18 10:49:13;;;;;;;3.13;1.10;;;;;23.80;97123.00;;;;5089126;28;20821;-70
2023/05/18 10:52:04;;;;;;;1.87;1.20;;;;;23.80;97114.00;;;;5089962;28;20199;-68
2023/05/18 10:54:53;;;;;;;0.60;0.60;;;;;22.60;97099.00;;;;5089700;28;20202;-71
2023/05/18 10:57:46;;;;;;;0.83;0.83;;;;;23.30;97102.00;;;;5093013;28;20234;-68
2023/05/18 11:00:37;;;;;;;0.70;0.70;;;;;21.30;97075.00;;;;5071562;28;20208;-64
2023/05/18 11:03:27;;;;;;;0.93;0.83;;;;;23.90;97104.00;;;;5081306;28;20792;-67
2023/05/18 11:06:24;;;;;;;2.00;0.70;;;;;23.50;97118.00;;;;5078200;28;20199;-68
2023/05/18 11:09:23;;;;;;;1.87;0.60;;;;;23.40;97106.00;;;;5067023;28;20204;-74
2023/05/18 11:12:13;;;;;;;0.83;0.77;;;;;22.90;97117.00;;;;5070841;28;20192;-69
2023/05/18 11:15:02;;;;;;;0.80;0.80;;;;;23.30;97099.00;;;;5076587;28;20203;-71
2023/05/18 11:18:13;;;;;;;2.00;0.80;;;;;24.00;97119.00;;;;5067878;28;20223;-68
2023/05/18 11:21:02;;;;;;;1.33;0.77;;;;;23.50;97110.00;;;;5071451;28;20720;-70
2023/05/18 11:24:28;;;;;;;1.23;0.73;;;;;24.40;97112.00;;;;5083556;22;20246;-91
2023/05/18 11:27:23;;;;;;;0.67;0.63;;;;;24.60;97111.00;;;;5059331;28;20204;-91
2023/05/18 11:30:27;;;;;;;0.60;0.60;;;;;23.80;97123.00;;;;5062992;28;20208;-90
2023/05/18 11:33:21;;;;;;;0.70;0.70;;;;;22.30;97124.00;;;;5066766;28;20199;-92
2023/05/18 11:36:12;;;;;;;0.70;0.70;;;;;20.60;97106.00;;;;5059971;28;20209;-91
2023/05/18 11:39:05;;;;;;;0.70;0.50;;;;;22.70;97121.00;;;;5058855;28;20208;-93
2023/05/18 11:42:01;;;;;;;0.70;0.70;;;;;23.30;97123.00;;;;5065050;28;20601;-91
2023/05/18 11:44:55;;;;;;;0.70;0.50;;;;;24.20;97129.00;;;;5065457;28;20220;-92
2023/05/18 11:47:44;;;;;;;0.70;0.70;;;;;24.10;97134.00;;;;5062636;28;20192;-93
2023/05/18 11:50:34;;;;;;;1.33;1.20;;;;;24.60;97109.00;;;;5066063;28;20206;-92
2023/05/18 11:53:24;;;;;;;0.70;0.60;;;;;25.20;97095.00;;;;5065528;28;20200;-91
2023/05/18 11:56:13;;;;;;;1.17;0.83;;;;;25.10;97124.00;;;;5058766;28;20204;-93
2023/05/18 11:59:12;;;;;;;0.83;0.70;;;;;25.00;97126.00;;;;5063838;28;20211;-91
2023/05/18 12:02:04;;;;;;;0.63;0.63;;;;;25.50;97101.00;;;;5054099;28;20220;-93
2023/05/18 12:04:55;;;;;;;2.47;0.70;;;;;25.50;97128.00;;;;5056570;28;20223;-91
2023/05/18 12:07:44;;;;;;;0.67;0.60;;;;;25.30;97137.00;;;;5062345;28;20217;-92
2023/05/18 12:10:36;;;;;;;3.27;0.70;;;;;23.60;97134.00;;;;5069527;28;20208;-92
2023/05/18 12:13:25;;;;;;;0.90;0.60;;;;;24.10;97130.00;;;;5051910;28;20228;-91
2023/05/18 12:16:14;;;;;;;1.90;0.70;;;;;23.00;97136.00;;;;5054371;28;20208;-91
2023/05/18 12:19:05;;;;;;;1.00;0.87;;;;;24.40;97134.00;;;;5078451;28;20223;-90
2023/05/18 12:21:54;;;;;;;1.33;0.90;;;;;22.80;97128.00;;;;5064262;28;20201;-89
2023/05/18 12:24:45;;;;;;;0.60;0.60;;;;;22.50;97125.00;;;;5057679;28;20240;-88
2023/05/18 12:27:39;;;;;;;1.60;0.97;;;;;23.70;97131.00;;;;5069347;28;20205;-89
2023/05/18 12:30:33;;;;;;;0.67;0.60;;;;;24.00;97126.00;;;;5058492;28;20224;-89
2023/05/18 12:33:23;;;;;;;0.77;0.67;;;;;24.00;97121.00;;;;5067013;28;20216;-90
2023/05/18 12:36:14;;;;;;;1.10;1.00;;;;;24.00;97127.00;;;;5068238;28;20214;-91
2023/05/18 12:39:03;;;;;;;0.77;0.77;;;;;24.40;97145.00;;;;5066683;28;20208;-91
2023/05/18 12:41:53;;;;;;;0.70;0.70;;;;;24.00;97145.00;;;;5053728;28;20690;-91
2023/05/18 12:44:43;;;;;;;2.33;1.00;;;;;22.60;97144.00;;;;5061308;28;20255;-91
2023/05/18 12:47:34;;;;;;;1.20;0.90;;;;;22.40;97145.00;;;;5061971;28;20212;-91
2023/05/18 12:50:25;;;;;;;1.17;0.97;;;;;22.40;97143.00;;;;5072171;28;20205;-91
2023/05/18 12:53:16;;;;;;;0.87;0.73;;;;;21.80;97140.00;;;;5074581;28;20278;-91
2023/05/18 12:56:11;;;;;;;1.10;1.00;;;;;22.10;97145.00;;;;5079735;28;20210;-91
2023/05/18 12:59:09;;;;;;;0.83;0.80;;;;;22.20;97154.00;;;;5071576;28;20200;-92
2023/05/18 13:01:58;;;;;;;1.40;0.87;;;;;22.10;97151.00;;;;5074953;28;20215;-92
2023/05/18 13:04:47;;;;;;;0.90;0.70;;;;;22.10;97145.00;;;;5081655;28;20231;-91
2023/05/18 13:07:40;;;;;;;2.37;1.77;;;;;22.10;97153.00;;;;5069196;28;20207;-91
2023/05/18 13:10:32;;;;;;;2.30;0.90;;;;;21.80;97160.00;;;;5064010;28;20211;-91
2023/05/18 13:13:21;;;;;;;2.40;2.00;;;;;21.60;97164.00;;;;5076344;28;20216;-93
2023/05/18 13:16:16;;;;;;;0.60;0.57;;;;;21.70;97166.00;;;;5072675;28;20692;-92
2023/05/18 13:19:07;;;;;;;2.00;1.20;;;;;21.80;97166.00;;;;5070951;28;20200;-92
2023/05/18 13:21:57;;;;;;;8.63;3.10;;;;;21.80;97166.00;;;;5067113;28;20204;-92
2023/05/18 13:24:46;;;;;;;2.17;1.70;;;;;21.90;97170.00;;;;5059016;28;20235;-92
2023/05/18 13:27:37;;;;;;;1.67;1.10;;;;;21.90;97172.00;;;;5057828;28;20207;-92
2023/05/18 13:30:26;;;;;;;1.33;0.70;;;;;21.90;97174.00;;;;5067448;28;20208;-92
2023/05/18 13:33:15;;;;;;;0.70;0.70;;;;;21.50;97164.00;;;;5067505;28;20224;-91
2023/05/18 13:36:05;;;;;;;1.17;0.90;;;;;21.80;97173.00;;;;5070058;28;20602;-92
2023/05/18 13:38:54;;;;;;;0.80;0.80;;;;;21.90;97176.00;;;;5062785;28;20203;-93
2023/05/18 13:41:43;;;;;;;1.47;1.30;;;;;21.60;97173.00;;;;5058027;28;20666;-92
2023/05/18 13:44:34;;;;;;;2.50;1.10;;;;;21.80;97171.00;;;;5069712;28;20220;-92
2023/05/18 13:47:23;;;;;;;5.90;2.07;;;;;21.90;97173.00;;;;5065212;28;20226;-92
2023/05/18 13:50:12;;;;;;;2.27;2.07;;;;;21.80;97165.00;;;;5075251;28;20211;-92
2023/05/18 13:53:02;;;;;;;2.73;1.70;;;;;21.50;97164.00;;;;5056020;28;20232;-91
2023/05/18 13:55:51;;;;;;;2.13;1.50;;;;;22.10;97166.00;;;;5059165;28;20629;-92
2023/05/18 13:58:42;;;;;;;1.70;1.60;;;;;22.20;97166.00;;;;5061913;28;20201;-92
2023/05/18 14:01:33;;;;;;;2.27;2.10;;;;;22.10;97156.00;;;;5064413;28;20215;-91
2023/05/18 14:04:22;;;;;;;3.07;2.33;;;;;22.20;97164.00;;;;5065305;28;20225;-92
2023/05/18 14:07:13;;;;;;;2.27;1.87;;;;;21.80;97168.00;;;;5068673;28;20221;-92
2023/05/18 14:10:02;;;;;;;4.97;1.97;;;;;21.80;97167.00;;;;5061286;28;20208;-91
2023/05/18 14:12:51;;;;;;;3.30;1.60;;;;;21.40;97155.00;;;;5065097;28;20207;-92
2023/05/18 14:15:40;;;;;;;2.17;1.97;;;;;22.10;97167.00;;;;5060995;28;20219;-87